sensor_id;sensor_type;location;lat;lon;timestamp;temperature;humidity
16182;DHT22;8197;51.664;7.114;2023-11-19T00:00:22;12.80;92.40
16182;DHT22;8197;51.664;7.114;2023-11-19T00:05:27;12.80;93.70
16182;DHT22;8197;51.664;7.114;2023-11-19T00:10:30;12.70;93.20
16182;DHT22;8197;51.664;7.114;2023-11-19T00:15:33;12.80;93.20
16182;DHT22;8197;51.664;7.114;2023-11-19T00:20:37;12.80;93.20
16182;DHT22;8197;51.664;7.114;2023-11-19T00:25:40;12.70;93.80
16182;DHT22;8197;51.664;7.114;2023-11-19T00:30:43;12.80;94.80
16182;DHT22;8197;51.664;7.114;2023-11-19T00:35:47;12.80;94.60
16182;DHT22;8197;51.664;7.114;2023-11-19T00:40:50;12.90;94.30
16182;DHT22;8197;51.664;7.114;2023-11-19T00:45:53;12.90;94.30
16182;DHT22;8197;51.664;7.114;2023-11-19T00:50:57;13.00;93.50
16182;DHT22;8197;51.664;7.114;2023-11-19T00:56:01;13.00;93.70
16182;DHT22;8197;51.664;7.114;2023-11-19T01:01:04;13.10;94.00
16182;DHT22;8197;51.664;7.114;2023-11-19T01:06:09;13.10;93.50
16182;DHT22;8197;51.664;7.114;2023-11-19T01:11:19;13.20;93.80
16182;DHT22;8197;51.664;7.114;2023-11-19T01:16:23;13.20;94.10
16182;DHT22;8197;51.664;7.114;2023-11-19T01:21:28;13.30;94.20
16182;DHT22;8197;51.664;7.114;2023-11-19T01:26:30;13.30;94.40
16182;DHT22;8197;51.664;7.114;2023-11-19T01:31:33;13.30;94.40
16182;DHT22;8197;51.664;7.114;2023-11-19T01:36:37;13.30;95.10
16182;DHT22;8197;51.664;7.114;2023-11-19T01:41:40;13.40;94.80
16182;DHT22;8197;51.664;7.114;2023-11-19T01:46:44;13.40;94.60
16182;DHT22;8197;51.664;7.114;2023-11-19T01:51:50;13.40;95.20
16182;DHT22;8197;51.664;7.114;2023-11-19T01:56:53;13.40;95.50
16182;DHT22;8197;51.664;7.114;2023-11-19T02:01:59;13.50;94.90
16182;DHT22;8197;51.664;7.114;2023-11-19T02:07:04;13.50;95.50
16182;DHT22;8197;51.664;7.114;2023-11-19T02:12:08;13.60;95.00
16182;DHT22;8197;51.664;7.114;2023-11-19T02:17:25;13.50;95.60
16182;DHT22;8197;51.664;7.114;2023-11-19T02:22:30;13.60;95.50
16182;DHT22;8197;51.664;7.114;2023-11-19T02:27:46;13.60;94.90
16182;DHT22;8197;51.664;7.114;2023-11-19T02:32:51;13.60;95.60
16182;DHT22;8197;51.664;7.114;2023-11-19T02:37:54;13.60;95.20
16182;DHT22;8197;51.664;7.114;2023-11-19T02:42:58;13.60;95.30
16182;DHT22;8197;51.664;7.114;2023-11-19T02:48:01;13.70;95.00
16182;DHT22;8197;51.664;7.114;2023-11-19T02:53:04;13.70;95.10
16182;DHT22;8197;51.664;7.114;2023-11-19T02:58:09;13.70;95.10
16182;DHT22;8197;51.664;7.114;2023-11-19T03:03:22;13.70;95.20
16182;DHT22;8197;51.664;7.114;2023-11-19T03:08:30;13.70;95.00
16182;DHT22;8197;51.664;7.114;2023-11-19T03:13:34;13.70;94.90
16182;DHT22;8197;51.664;7.114;2023-11-19T03:18:37;13.70;95.00
16182;DHT22;8197;51.664;7.114;2023-11-19T03:23:40;13.70;94.70
16182;DHT22;8197;51.664;7.114;2023-11-19T03:28:46;13.70;94.70
16182;DHT22;8197;51.664;7.114;2023-11-19T03:33:49;13.80;94.20
16182;DHT22;8197;51.664;7.114;2023-11-19T03:38:52;13.80;94.10
16182;DHT22;8197;51.664;7.114;2023-11-19T03:43:56;13.80;94.00
16182;DHT22;8197;51.664;7.114;2023-11-19T03:48:59;13.80;93.90
16182;DHT22;8197;51.664;7.114;2023-11-19T03:54:02;13.80;93.80
16182;DHT22;8197;51.664;7.114;2023-11-19T03:59:06;13.80;93.10
16182;DHT22;8197;51.664;7.114;2023-11-19T04:04:09;13.90;93.60
16182;DHT22;8197;51.664;7.114;2023-11-19T04:09:12;13.90;93.30
16182;DHT22;8197;51.664;7.114;2023-11-19T04:14:16;13.80;93.40
16182;DHT22;8197;51.664;7.114;2023-11-19T04:19:20;13.80;93.00
16182;DHT22;8197;51.664;7.114;2023-11-19T04:24:23;13.80;92.80
16182;DHT22;8197;51.664;7.114;2023-11-19T04:29:28;13.80;92.30
16182;DHT22;8197;51.664;7.114;2023-11-19T04:34:32;13.80;92.20
16182;DHT22;8197;51.664;7.114;2023-11-19T04:39:35;13.80;91.80
16182;DHT22;8197;51.664;7.114;2023-11-19T04:44:40;13.80;91.80
16182;DHT22;8197;51.664;7.114;2023-11-19T04:49:43;13.80;91.40
16182;DHT22;8197;51.664;7.114;2023-11-19T04:54:46;13.70;91.40
16182;DHT22;8197;51.664;7.114;2023-11-19T04:59:51;13.70;90.80
16182;DHT22;8197;51.664;7.114;2023-11-19T05:04:53;13.70;91.20
16182;DHT22;8197;51.664;7.114;2023-11-19T05:09:56;13.70;90.70
16182;DHT22;8197;51.664;7.114;2023-11-19T05:15:01;13.70;89.90
16182;DHT22;8197;51.664;7.114;2023-11-19T05:20:05;13.60;90.40
16182;DHT22;8197;51.664;7.114;2023-11-19T05:25:14;13.60;90.00
16182;DHT22;8197;51.664;7.114;2023-11-19T05:30:19;13.50;89.20
16182;DHT22;8197;51.664;7.114;2023-11-19T05:35:21;13.60;89.70
16182;DHT22;8197;51.664;7.114;2023-11-19T05:40:24;13.50;90.20
16182;DHT22;8197;51.664;7.114;2023-11-19T05:45:29;13.50;90.20
16182;DHT22;8197;51.664;7.114;2023-11-19T05:50:31;13.50;89.60
16182;DHT22;8197;51.664;7.114;2023-11-19T05:55:34;13.50;88.70
16182;DHT22;8197;51.664;7.114;2023-11-19T06:00:40;13.50;88.70
16182;DHT22;8197;51.664;7.114;2023-11-19T06:05:44;13.50;88.20
16182;DHT22;8197;51.664;7.114;2023-11-19T06:10:47;13.50;88.10
16182;DHT22;8197;51.664;7.114;2023-11-19T06:15:53;13.50;88.70
16182;DHT22;8197;51.664;7.114;2023-11-19T06:20:56;13.60;87.20
16182;DHT22;8197;51.664;7.114;2023-11-19T06:25:59;13.60;87.30
16182;DHT22;8197;51.664;7.114;2023-11-19T06:31:03;13.50;89.00
16182;DHT22;8197;51.664;7.114;2023-11-19T06:36:08;13.50;87.80
16182;DHT22;8197;51.664;7.114;2023-11-19T06:41:11;13.50;87.60
16182;DHT22;8197;51.664;7.114;2023-11-19T06:46:16;13.60;88.20
16182;DHT22;8197;51.664;7.114;2023-11-19T06:51:19;13.60;88.10
16182;DHT22;8197;51.664;7.114;2023-11-19T06:56:23;13.60;88.30
16182;DHT22;8197;51.664;7.114;2023-11-19T07:01:28;13.60;86.90
16182;DHT22;8197;51.664;7.114;2023-11-19T07:06:31;13.60;86.70
16182;DHT22;8197;51.664;7.114;2023-11-19T07:11:37;13.60;87.20
16182;DHT22;8197;51.664;7.114;2023-11-19T07:16:43;13.60;86.40
16182;DHT22;8197;51.664;7.114;2023-11-19T07:21:47;13.60;85.90
16182;DHT22;8197;51.664;7.114;2023-11-19T07:26:49;13.60;87.70
16182;DHT22;8197;51.664;7.114;2023-11-19T07:31:54;13.60;86.40
16182;DHT22;8197;51.664;7.114;2023-11-19T07:36:58;13.60;86.50
16182;DHT22;8197;51.664;7.114;2023-11-19T07:42:04;13.60;86.40
16182;DHT22;8197;51.664;7.114;2023-11-19T07:47:08;13.60;86.30
16182;DHT22;8197;51.664;7.114;2023-11-19T07:52:11;13.50;86.30
16182;DHT22;8197;51.664;7.114;2023-11-19T07:57:17;13.50;85.30
16182;DHT22;8197;51.664;7.114;2023-11-19T08:02:21;13.50;86.00
16182;DHT22;8197;51.664;7.114;2023-11-19T08:07:25;13.60;85.40
16182;DHT22;8197;51.664;7.114;2023-11-19T08:12:28;13.60;84.90
16182;DHT22;8197;51.664;7.114;2023-11-19T08:17:33;13.60;86.00
16182;DHT22;8197;51.664;7.114;2023-11-19T08:22:36;13.60;84.80
16182;DHT22;8197;51.664;7.114;2023-11-19T08:27:39;13.60;84.80
16182;DHT22;8197;51.664;7.114;2023-11-19T08:32:43;13.60;85.70
16182;DHT22;8197;51.664;7.114;2023-11-19T08:37:46;13.60;85.20
16182;DHT22;8197;51.664;7.114;2023-11-19T08:42:49;13.60;84.50
16182;DHT22;8197;51.664;7.114;2023-11-19T08:47:53;13.60;84.40
16182;DHT22;8197;51.664;7.114;2023-11-19T08:52:56;13.60;84.30
16182;DHT22;8197;51.664;7.114;2023-11-19T08:57:59;13.60;85.70
16182;DHT22;8197;51.664;7.114;2023-11-19T09:03:04;13.60;84.90
16182;DHT22;8197;51.664;7.114;2023-11-19T09:08:07;13.60;84.60
16182;DHT22;8197;51.664;7.114;2023-11-19T09:13:10;13.50;84.20
16182;DHT22;8197;51.664;7.114;2023-11-19T09:18:14;13.60;84.60
16182;DHT22;8197;51.664;7.114;2023-11-19T09:23:17;13.70;84.40
16182;DHT22;8197;51.664;7.114;2023-11-19T09:28:20;13.70;83.90
16182;DHT22;8197;51.664;7.114;2023-11-19T09:33:24;13.70;83.60
16182;DHT22;8197;51.664;7.114;2023-11-19T09:38:28;13.70;82.90
16182;DHT22;8197;51.664;7.114;2023-11-19T09:43:31;13.70;82.90
16182;DHT22;8197;51.664;7.114;2023-11-19T09:48:35;13.70;82.60
16182;DHT22;8197;51.664;7.114;2023-11-19T09:53:39;13.80;83.50
16182;DHT22;8197;51.664;7.114;2023-11-19T09:58:42;13.80;83.10
16182;DHT22;8197;51.664;7.114;2023-11-19T10:03:47;13.80;82.50
16182;DHT22;8197;51.664;7.114;2023-11-19T10:08:51;13.80;82.40
16182;DHT22;8197;51.664;7.114;2023-11-19T10:13:54;13.80;83.10
16182;DHT22;8197;51.664;7.114;2023-11-19T10:18:58;13.90;82.60
16182;DHT22;8197;51.664;7.114;2023-11-19T10:24:01;13.90;82.50
16182;DHT22;8197;51.664;7.114;2023-11-19T10:29:04;13.90;83.00
16182;DHT22;8197;51.664;7.114;2023-11-19T10:34:24;13.90;83.30
16182;DHT22;8197;51.664;7.114;2023-11-19T10:39:51;13.90;83.50
16182;DHT22;8197;51.664;7.114;2023-11-19T10:44:56;13.90;83.30
16182;DHT22;8197;51.664;7.114;2023-11-19T10:50:00;13.90;83.10
16182;DHT22;8197;51.664;7.114;2023-11-19T10:55:06;13.90;82.70
16182;DHT22;8197;51.664;7.114;2023-11-19T11:00:13;13.90;82.30
16182;DHT22;8197;51.664;7.114;2023-11-19T11:05:21;14.00;82.60
16182;DHT22;8197;51.664;7.114;2023-11-19T11:10:27;14.00;82.30
16182;DHT22;8197;51.664;7.114;2023-11-19T11:15:31;14.00;82.00
16182;DHT22;8197;51.664;7.114;2023-11-19T11:20:35;14.00;82.00
16182;DHT22;8197;51.664;7.114;2023-11-19T11:25:47;14.00;81.10
16182;DHT22;8197;51.664;7.114;2023-11-19T11:31:13;14.00;81.20
16182;DHT22;8197;51.664;7.114;2023-11-19T11:36:20;14.00;81.90
16182;DHT22;8197;51.664;7.114;2023-11-19T11:41:25;14.10;82.20
16182;DHT22;8197;51.664;7.114;2023-11-19T11:46:53;14.10;81.40
16182;DHT22;8197;51.664;7.114;2023-11-19T11:52:04;14.10;81.20
16182;DHT22;8197;51.664;7.114;2023-11-19T11:57:09;14.10;81.80
16182;DHT22;8197;51.664;7.114;2023-11-19T12:02:16;14.10;81.00
16182;DHT22;8197;51.664;7.114;2023-11-19T12:07:22;14.10;80.60
16182;DHT22;8197;51.664;7.114;2023-11-19T12:12:27;14.20;80.40
16182;DHT22;8197;51.664;7.114;2023-11-19T12:17:47;14.30;80.00
16182;DHT22;8197;51.664;7.114;2023-11-19T12:22:54;14.30;79.10
16182;DHT22;8197;51.664;7.114;2023-11-19T12:27:57;14.30;78.60
16182;DHT22;8197;51.664;7.114;2023-11-19T12:33:08;14.30;78.80
16182;DHT22;8197;51.664;7.114;2023-11-19T12:38:20;14.30;78.30
16182;DHT22;8197;51.664;7.114;2023-11-19T12:43:23;14.30;79.10
16182;DHT22;8197;51.664;7.114;2023-11-19T12:48:26;14.40;78.20
16182;DHT22;8197;51.664;7.114;2023-11-19T12:53:47;14.30;78.60
16182;DHT22;8197;51.664;7.114;2023-11-19T12:58:51;14.30;78.70
16182;DHT22;8197;51.664;7.114;2023-11-19T13:03:54;14.30;79.60
16182;DHT22;8197;51.664;7.114;2023-11-19T13:08:58;14.30;79.80
16182;DHT22;8197;51.664;7.114;2023-11-19T13:14:02;14.30;80.50
16182;DHT22;8197;51.664;7.114;2023-11-19T13:19:06;14.30;80.50
16182;DHT22;8197;51.664;7.114;2023-11-19T13:24:12;14.20;80.20
16182;DHT22;8197;51.664;7.114;2023-11-19T13:29:15;14.20;80.70
16182;DHT22;8197;51.664;7.114;2023-11-19T13:34:18;14.20;80.90
16182;DHT22;8197;51.664;7.114;2023-11-19T13:39:22;14.20;81.30
16182;DHT22;8197;51.664;7.114;2023-11-19T13:44:25;14.20;81.20
16182;DHT22;8197;51.664;7.114;2023-11-19T13:49:28;14.20;81.30
16182;DHT22;8197;51.664;7.114;2023-11-19T13:54:32;14.20;80.30
16182;DHT22;8197;51.664;7.114;2023-11-19T13:59:39;14.10;80.70
16182;DHT22;8197;51.664;7.114;2023-11-19T14:04:43;14.10;80.50
16182;DHT22;8197;51.664;7.114;2023-11-19T14:09:48;14.20;80.90
16182;DHT22;8197;51.664;7.114;2023-11-19T14:14:51;14.20;80.30
16182;DHT22;8197;51.664;7.114;2023-11-19T14:19:54;14.20;80.50
16182;DHT22;8197;51.664;7.114;2023-11-19T14:24:59;14.30;80.40
16182;DHT22;8197;51.664;7.114;2023-11-19T14:30:02;14.20;80.20
16182;DHT22;8197;51.664;7.114;2023-11-19T14:35:06;14.20;80.00
16182;DHT22;8197;51.664;7.114;2023-11-19T14:40:11;14.20;80.60
16182;DHT22;8197;51.664;7.114;2023-11-19T14:45:14;14.20;81.00
16182;DHT22;8197;51.664;7.114;2023-11-19T14:50:17;14.20;82.00
16182;DHT22;8197;51.664;7.114;2023-11-19T14:55:22;14.10;82.30
16182;DHT22;8197;51.664;7.114;2023-11-19T15:00:25;14.00;82.40
16182;DHT22;8197;51.664;7.114;2023-11-19T15:05:28;14.00;82.60
16182;DHT22;8197;51.664;7.114;2023-11-19T15:10:32;13.90;82.50
16182;DHT22;8197;51.664;7.114;2023-11-19T15:15:35;14.00;82.80
16182;DHT22;8197;51.664;7.114;2023-11-19T15:20:40;14.00;82.60
16182;DHT22;8197;51.664;7.114;2023-11-19T15:25:44;14.00;82.90
16182;DHT22;8197;51.664;7.114;2023-11-19T15:30:47;14.00;82.90
16182;DHT22;8197;51.664;7.114;2023-11-19T15:35:50;14.00;82.40
16182;DHT22;8197;51.664;7.114;2023-11-19T15:40:54;13.90;82.60
16182;DHT22;8197;51.664;7.114;2023-11-19T15:45:57;14.00;82.90
16182;DHT22;8197;51.664;7.114;2023-11-19T15:51:01;14.00;82.20
16182;DHT22;8197;51.664;7.114;2023-11-19T15:56:06;14.00;82.70
16182;DHT22;8197;51.664;7.114;2023-11-19T16:01:09;14.00;82.50
16182;DHT22;8197;51.664;7.114;2023-11-19T16:06:12;14.00;82.10
16182;DHT22;8197;51.664;7.114;2023-11-19T16:11:16;13.90;82.30
16182;DHT22;8197;51.664;7.114;2023-11-19T16:16:19;14.00;82.90
16182;DHT22;8197;51.664;7.114;2023-11-19T16:21:22;13.90;82.60
16182;DHT22;8197;51.664;7.114;2023-11-19T16:26:28;13.90;83.30
16182;DHT22;8197;51.664;7.114;2023-11-19T16:31:32;13.90;82.80
16182;DHT22;8197;51.664;7.114;2023-11-19T16:36:35;13.90;83.20
16182;DHT22;8197;51.664;7.114;2023-11-19T16:41:39;13.90;83.00
16182;DHT22;8197;51.664;7.114;2023-11-19T16:46:44;13.90;83.30
16182;DHT22;8197;51.664;7.114;2023-11-19T16:51:47;13.90;83.50
16182;DHT22;8197;51.664;7.114;2023-11-19T16:56:52;13.90;83.70
16182;DHT22;8197;51.664;7.114;2023-11-19T17:01:55;13.90;84.50
16182;DHT22;8197;51.664;7.114;2023-11-19T17:06:57;13.90;84.10
16182;DHT22;8197;51.664;7.114;2023-11-19T17:12:02;13.90;84.90
16182;DHT22;8197;51.664;7.114;2023-11-19T17:17:05;13.90;85.10
16182;DHT22;8197;51.664;7.114;2023-11-19T17:22:08;13.70;85.70
16182;DHT22;8197;51.664;7.114;2023-11-19T17:27:12;13.80;85.60
16182;DHT22;8197;51.664;7.114;2023-11-19T17:32:15;13.90;85.50
16182;DHT22;8197;51.664;7.114;2023-11-19T17:37:18;13.80;85.30
16182;DHT22;8197;51.664;7.114;2023-11-19T17:42:22;13.80;85.60
16182;DHT22;8197;51.664;7.114;2023-11-19T17:47:25;13.80;85.80
16182;DHT22;8197;51.664;7.114;2023-11-19T17:52:28;13.80;85.70
16182;DHT22;8197;51.664;7.114;2023-11-19T17:57:33;13.80;86.00
16182;DHT22;8197;51.664;7.114;2023-11-19T18:02:36;13.80;86.00
16182;DHT22;8197;51.664;7.114;2023-11-19T18:07:41;13.70;86.00
16182;DHT22;8197;51.664;7.114;2023-11-19T18:12:46;13.70;86.40
16182;DHT22;8197;51.664;7.114;2023-11-19T18:17:48;13.70;86.20
16182;DHT22;8197;51.664;7.114;2023-11-19T18:22:51;13.70;86.30
16182;DHT22;8197;51.664;7.114;2023-11-19T18:27:57;13.70;86.20
16182;DHT22;8197;51.664;7.114;2023-11-19T18:33:00;13.70;85.90
16182;DHT22;8197;51.664;7.114;2023-11-19T18:38:03;13.70;86.30
16182;DHT22;8197;51.664;7.114;2023-11-19T18:43:07;13.70;86.10
16182;DHT22;8197;51.664;7.114;2023-11-19T18:48:10;13.70;86.20
16182;DHT22;8197;51.664;7.114;2023-11-19T18:53:14;13.70;86.20
16182;DHT22;8197;51.664;7.114;2023-11-19T18:58:18;13.70;86.40
16182;DHT22;8197;51.664;7.114;2023-11-19T19:03:21;13.70;86.10
16182;DHT22;8197;51.664;7.114;2023-11-19T19:08:25;13.70;86.00
16182;DHT22;8197;51.664;7.114;2023-11-19T19:13:29;13.70;85.90
16182;DHT22;8197;51.664;7.114;2023-11-19T19:18:32;13.70;86.10
16182;DHT22;8197;51.664;7.114;2023-11-19T19:23:36;13.70;86.80
16182;DHT22;8197;51.664;7.114;2023-11-19T19:28:40;13.70;85.80
16182;DHT22;8197;51.664;7.114;2023-11-19T19:33:43;13.60;87.10
16182;DHT22;8197;51.664;7.114;2023-11-19T19:38:46;13.50;87.90
16182;DHT22;8197;51.664;7.114;2023-11-19T19:43:51;13.40;87.90
16182;DHT22;8197;51.664;7.114;2023-11-19T19:48:54;13.40;88.10
16182;DHT22;8197;51.664;7.114;2023-11-19T19:53:56;13.40;87.80
16182;DHT22;8197;51.664;7.114;2023-11-19T19:59:01;13.50;88.00
16182;DHT22;8197;51.664;7.114;2023-11-19T20:04:05;13.50;87.60
16182;DHT22;8197;51.664;7.114;2023-11-19T20:09:08;13.60;87.30
16182;DHT22;8197;51.664;7.114;2023-11-19T20:14:16;13.60;87.40
16182;DHT22;8197;51.664;7.114;2023-11-19T20:19:24;13.70;87.70
16182;DHT22;8197;51.664;7.114;2023-11-19T20:24:27;13.70;87.90
16182;DHT22;8197;51.664;7.114;2023-11-19T20:29:31;13.70;87.40
16182;DHT22;8197;51.664;7.114;2023-11-19T20:34:34;13.60;87.70
16182;DHT22;8197;51.664;7.114;2023-11-19T20:39:37;13.60;87.90
16182;DHT22;8197;51.664;7.114;2023-11-19T20:44:41;13.60;87.80
16182;DHT22;8197;51.664;7.114;2023-11-19T20:49:44;13.50;88.60
16182;DHT22;8197;51.664;7.114;2023-11-19T20:54:47;13.60;88.20
16182;DHT22;8197;51.664;7.114;2023-11-19T20:59:51;13.60;88.00
16182;DHT22;8197;51.664;7.114;2023-11-19T21:04:54;13.60;88.60
16182;DHT22;8197;51.664;7.114;2023-11-19T21:09:57;13.60;88.70
16182;DHT22;8197;51.664;7.114;2023-11-19T21:15:02;13.50;88.90
16182;DHT22;8197;51.664;7.114;2023-11-19T21:20:07;13.50;88.70
16182;DHT22;8197;51.664;7.114;2023-11-19T21:25:10;13.60;88.90
16182;DHT22;8197;51.664;7.114;2023-11-19T21:30:15;13.60;88.60
16182;DHT22;8197;51.664;7.114;2023-11-19T21:35:19;13.60;88.40
16182;DHT22;8197;51.664;7.114;2023-11-19T21:40:22;13.70;88.30
16182;DHT22;8197;51.664;7.114;2023-11-19T21:45:27;13.70;88.20
16182;DHT22;8197;51.664;7.114;2023-11-19T21:50:30;13.60;88.40
16182;DHT22;8197;51.664;7.114;2023-11-19T21:55:32;13.70;88.20
16182;DHT22;8197;51.664;7.114;2023-11-19T22:00:37;13.70;88.30
16182;DHT22;8197;51.664;7.114;2023-11-19T22:05:40;13.60;87.90
16182;DHT22;8197;51.664;7.114;2023-11-19T22:10:43;13.50;88.90
16182;DHT22;8197;51.664;7.114;2023-11-19T22:15:47;13.60;88.30
16182;DHT22;8197;51.664;7.114;2023-11-19T22:20:50;13.60;88.30
16182;DHT22;8197;51.664;7.114;2023-11-19T22:25:53;13.70;88.30
16182;DHT22;8197;51.664;7.114;2023-11-19T22:30:57;13.70;88.50
16182;DHT22;8197;51.664;7.114;2023-11-19T22:36:00;13.70;88.50
16182;DHT22;8197;51.664;7.114;2023-11-19T22:41:03;13.70;88.20
16182;DHT22;8197;51.664;7.114;2023-11-19T22:46:08;13.70;88.20
16182;DHT22;8197;51.664;7.114;2023-11-19T22:51:10;13.60;88.50
16182;DHT22;8197;51.664;7.114;2023-11-19T22:56:13;13.60;87.90
16182;DHT22;8197;51.664;7.114;2023-11-19T23:01:20;13.60;88.90
16182;DHT22;8197;51.664;7.114;2023-11-19T23:06:23;13.60;88.20
16182;DHT22;8197;51.664;7.114;2023-11-19T23:11:26;13.60;88.20
16182;DHT22;8197;51.664;7.114;2023-11-19T23:16:36;13.70;88.20
16182;DHT22;8197;51.664;7.114;2023-11-19T23:21:40;13.70;88.00
16182;DHT22;8197;51.664;7.114;2023-11-19T23:26:45;13.60;88.70
16182;DHT22;8197;51.664;7.114;2023-11-19T23:31:49;13.60;88.80
16182;DHT22;8197;51.664;7.114;2023-11-19T23:36:52;13.60;88.80
16182;DHT22;8197;51.664;7.114;2023-11-19T23:41:55;13.70;88.50
16182;DHT22;8197;51.664;7.114;2023-11-19T23:46:59;13.70;88.50
16182;DHT22;8197;51.664;7.114;2023-11-19T23:52:02;13.70;88.70
16182;DHT22;8197;51.664;7.114;2023-11-19T23:57:06;13.70;88.50
